Disclaimer

Please do not use the information listed here in-flight or in-navigation, as they are not provided to us by the airports but are provided by volunteers, so they might be outdated.

Search


Regions


Airport information page

Radio informations:
INFO - 124.5 MHz

Airport informations:
Latitude: 52° 27' 04.00" N
Longitude: 020° 39' 06.40" E
Elevation: 341 feet - 104 meters
Operating hours: Remarks
Operating agency: Military
Timezone: UTC+1(+2DT) - 31 March at 0100Z to 27 October at 0100Z
Fuel: N/A

Runway information:
08/26 - 8202 x 197 feet< - >2500 x 60 meters

Recent METARs:
EPMO 160630Z 09008KT 9999 FEW020 BKN027 03/00 Q1038
EPMO 160700Z 09008KT 9999 FEW022 BKN027 03/M01 Q1039
EPMO 160730Z 10009KT 9999 FEW020 BKN025 03/M01 Q1039

Airport on the map: